Malaysia Virtual Airlines Airport Information Service

Perth Airport

ICAO: YPPH Country: Australia
Latitude: -31.9403 Longitude: 115.967
Latest Arrival : MH121 (WBKK-YPPH) Latest Departure : MH126 (YPPH-WMKK)


WX CaptureLIVE
Data provided by noaa.gov | Fetched at 16:11:32

METAR : YPPH 261549Z 26019G29KT 250V310 9000 -SHRA FEW009 SCT032 BKN043 15/13 Q0998

TAF : YPPH 261104Z 2612/2718 27025G35KT 9999 -SHRA SCT010 BKN030 FM270200 25020G35KT 9999 -SHRA SCT030 FM270600 25018G28KT 9999 NSW SCT040 FM270900 26014KT 9999 SCT040 INTER 2612/2617 26035G45KT 4000 SHRA BKN015 INTER 2617/2702 26035G45KT 5000 SHRA SCT015 BKN020


Runway Data for YPPH
Data provided by openaviationdata.com

Runway ID Mag Var Hdg Length Elevation Surface ILS Freq ILS Id ILS Slope
3 -2 15° 11326 ft 67 ft Asphalt 110.1 IPN 3
6 -2 60° 7098 ft 67 ft Asphalt -- -- --
21 -2 195° 11326 ft 67 ft Asphalt 109.5 IGD 3
24 -2 240° 7098 ft 67 ft Asphalt 109.9 IPH 3

Perth Airport, Australia
Use only for reference purposes



Not for navigational purposes.